Time;durP1;ratioP1;P1;durP2;ratioP2;P2;SDS_P1;SDS_P2;PMS_P1;PMS_P2;Temp;Humidity;BMP_temperature;BMP_pressure;BME280_temperature;BME280_humidity;BME280_pressure;Samples;Min_cycle;Max_cycle;Signal;HPM_P1;HPM_P2
2023/07/21 06:52:34;;;;;;;1336.90;999.90;;;;;;;19.62;55.95;96084.41;2090410;27;20574;-57
2023/07/21 06:54:38;;;;;;;1054.75;956.05;;;;;;;19.73;55.08;96087.78;2084708;28;20570;-58
2023/07/21 06:56:58;;;;;;;985.88;902.47;;;;;;;20.11;54.35;96084.44;2085053;28;20547;-58
2023/07/21 06:58:00;;;;;;;1032.38;940.45;;;;;;;20.32;54.03;96078.97;2078707;28;20220;-58
2023/07/21 07:00:15;;;;;;;1108.95;997.88;;;;;;;20.21;54.37;96091.41;2084481;28;20568;-58
2023/07/21 07:01:17;;;;;;;1193.35;999.90;;;;;;;20.36;54.49;96096.25;2082177;28;20196;-57
2023/07/21 07:03:35;;;;;;;1052.63;953.55;;;;;;;20.38;53.39;96081.88;2100385;27;20572;-58
2023/07/21 07:05:41;;;;;;;833.42;762.22;;;;;;;20.62;54.00;96098.28;2084411;28;20579;-57
2023/07/21 07:07:50;;;;;;;733.28;671.85;;;;;;;20.56;53.71;96092.56;2088175;27;20562;-57
2023/07/21 07:09:54;;;;;;;719.03;655.35;;;;;;;20.24;53.71;96090.28;2084034;28;20558;-58
2023/07/21 07:35:06;;;;;;;1545.93;897.90;;;;;;;20.19;55.44;96093.38;2083290;28;21066;-58
2023/07/21 07:37:16;;;;;;;2250.00;999.90;;;;;;;20.28;55.21;96102.28;2086199;28;20564;-57
2023/07/21 07:38:23;;;;;;;960.75;853.78;;;;;;;20.62;54.86;96107.09;2079238;28;20309;-57
2023/07/21 07:39:25;;;;;;;1652.60;994.05;;;;;;;20.74;54.69;96107.78;2078554;28;20199;-58
2023/07/21 07:40:26;;;;;;;727.92;659.20;;;;;;;20.49;54.47;96111.88;2078907;28;20529;-57
2023/07/21 07:41:28;;;;;;;722.47;656.15;;;;;;;20.69;53.68;96108.16;2078536;28;20197;-57
2023/07/21 07:42:29;;;;;;;839.40;758.45;;;;;;;20.73;53.55;96095.47;2077830;28;20185;-57
2023/07/21 07:43:34;;;;;;;768.40;693.60;;;;;;;21.01;53.30;96104.34;2079520;28;20694;-58
2023/07/21 07:44:36;;;;;;;684.92;620.78;;;;;;;20.95;52.91;96102.25;2085864;28;20189;-58
2023/07/21 07:45:37;;;;;;;1439.60;807.00;;;;;;;21.15;52.91;96108.31;2084637;28;20594;-58
2023/07/21 07:46:39;;;;;;;608.28;548.58;;;;;;;21.45;51.74;96105.50;2077797;28;20288;-57
2023/07/21 07:47:43;;;;;;;678.70;618.42;;;;;;;21.94;51.62;96103.34;2076429;28;20197;-58
2023/07/21 07:48:45;;;;;;;768.28;699.97;;;;;;;22.45;50.44;96111.56;2081465;28;20201;-58
2023/07/21 07:49:46;;;;;;;542.50;487.33;;;;;;;22.44;50.03;96106.41;2081029;28;20242;-58
2023/07/21 07:50:48;;;;;;;826.35;751.85;;;;;;;22.43;50.08;96102.09;2081773;28;20204;-58
2023/07/21 07:51:49;;;;;;;947.17;862.15;;;;;;;22.15;49.64;96095.03;2081870;28;20287;-58
2023/07/21 07:52:50;;;;;;;1005.05;910.42;;;;;;;22.49;49.80;96106.78;2080725;28;20223;-58
2023/07/21 07:53:52;;;;;;;894.35;808.50;;;;;;;22.58;49.84;96111.16;2080770;28;20327;-59
2023/07/21 07:54:53;;;;;;;778.08;711.10;;;;;;;22.59;49.43;96096.03;2078955;28;20204;-58
2023/07/21 07:55:55;;;;;;;711.38;651.95;;;;;;;22.61;48.36;96107.34;2078713;28;20251;-58
2023/07/21 07:56:56;;;;;;;739.90;676.55;;;;;;;22.61;48.33;96105.53;2079492;28;20235;-58
2023/07/21 07:57:59;;;;;;;1108.72;758.60;;;;;;;22.59;48.24;96104.84;2079130;28;20231;-58
2023/07/21 07:59:00;;;;;;;1390.20;742.22;;;;;;;22.62;48.86;96112.50;2083670;28;20262;-58
2023/07/21 08:00:06;;;;;;;1413.40;782.58;;;;;;;22.05;49.30;96109.41;2082849;28;20250;-58
2023/07/21 08:01:07;;;;;;;2250.00;999.90;;;;;;;21.90;49.67;96109.94;2080977;28;20203;-58
2023/07/21 08:02:09;;;;;;;1351.10;711.05;;;;;;;21.81;49.53;96113.50;2080238;28;20283;-58
2023/07/21 08:03:11;;;;;;;2250.00;999.90;;;;;;;21.90;49.79;96107.28;2079206;28;20291;-58
2023/07/21 08:04:12;;;;;;;2250.00;999.90;;;;;;;21.97;49.47;96107.53;2077705;28;20212;-58
2023/07/21 08:05:14;;;;;;;2250.00;999.90;;;;;;;21.87;50.27;96107.59;2078470;28;20201;-58
2023/07/21 08:06:16;;;;;;;2250.00;999.90;;;;;;;21.97;49.99;96107.53;2079088;28;20204;-58
2023/07/21 08:07:18;;;;;;;2250.00;999.90;;;;;;;22.13;50.25;96117.44;2082688;28;20196;-58
2023/07/21 08:08:21;;;;;;;2250.00;999.90;;;;;;;22.09;49.95;96113.44;2079576;28;20223;-58
2023/07/21 08:09:23;;;;;;;2250.00;999.90;;;;;;;22.04;49.92;96118.38;2079911;28;20204;-58
2023/07/21 08:10:27;;;;;;;2250.00;999.90;;;;;;;21.87;49.27;96110.25;2075913;28;20209;-58
2023/07/21 08:11:29;;;;;;;2250.00;999.90;;;;;;;21.80;48.65;96117.16;2080451;28;20208;-58
2023/07/21 08:12:30;;;;;;;2250.00;999.90;;;;;;;21.68;48.71;96112.06;2080218;28;20275;-58
2023/07/21 08:13:32;;;;;;;2250.00;999.90;;;;;;;21.51;49.09;96118.19;2081318;28;20292;-58
2023/07/21 08:14:34;;;;;;;2250.00;999.90;;;;;;;21.61;49.29;96116.31;2082036;28;20198;-59
2023/07/21 08:15:35;;;;;;;2250.00;999.90;;;;;;;21.59;47.86;96110.31;2079034;28;20196;-58
2023/07/21 08:16:38;;;;;;;2250.00;999.90;;;;;;;21.58;47.77;96105.16;2077764;28;20196;-58
2023/07/21 08:17:40;;;;;;;2250.00;999.90;;;;;;;21.55;47.87;96111.59;2075763;28;20205;-58
2023/07/21 08:18:42;;;;;;;2250.00;999.90;;;;;;;21.70;48.49;96109.28;2076213;28;20202;-58
2023/07/21 08:19:44;;;;;;;2250.00;999.90;;;;;;;21.85;47.51;96105.09;2076991;28;20577;-58
2023/07/21 08:20:50;;;;;;;2250.00;999.90;;;;;;;21.84;47.76;96111.38;2078244;28;20202;-59
2023/07/21 08:21:52;;;;;;;2250.00;999.90;;;;;;;22.04;46.88;96110.41;2077392;28;20213;-58
2023/07/21 08:22:53;;;;;;;2250.00;999.90;;;;;;;22.14;47.39;96111.13;2078525;28;20217;-58
2023/07/21 08:23:56;;;;;;;2250.00;999.90;;;;;;;21.79;47.44;96111.00;2080145;28;20610;-58
2023/07/21 08:24:57;;;;;;;2250.00;999.90;;;;;;;21.71;48.13;96110.91;2079966;28;20235;-58
2023/07/21 08:25:58;;;;;;;2250.00;999.90;;;;;;;21.82;48.32;96116.00;2080001;28;20194;-58
2023/07/21 08:27:02;;;;;;;2250.00;999.90;;;;;;;21.80;48.12;96114.50;2080089;28;20599;-58
2023/07/21 08:28:04;;;;;;;2250.00;999.90;;;;;;;21.88;48.50;96114.59;2074977;28;20229;-59
2023/07/21 08:29:08;;;;;;;2250.00;999.90;;;;;;;21.74;47.46;96112.44;2074345;28;20763;-59
2023/07/21 08:30:10;;;;;;;2250.00;999.90;;;;;;;22.01;47.49;96116.84;2079414;28;20196;-58
2023/07/21 08:31:12;;;;;;;2250.00;999.90;;;;;;;21.98;47.20;96110.03;2083372;28;20201;-58
2023/07/21 08:32:14;;;;;;;2250.00;999.90;;;;;;;22.16;47.11;96111.84;2077415;28;20192;-58
2023/07/21 08:33:15;;;;;;;2250.00;999.90;;;;;;;22.09;46.22;96121.41;2079131;28;20237;-58
2023/07/21 08:34:17;;;;;;;2250.00;999.90;;;;;;;22.17;46.59;96113.50;2077468;28;20633;-58
2023/07/21 08:35:18;;;;;;;2250.00;999.90;;;;;;;22.39;46.07;96108.72;2078493;28;20548;-58
2023/07/21 08:36:19;;;;;;;2250.00;999.90;;;;;;;22.50;46.93;96116.44;2075742;28;20767;-58
2023/07/21 08:37:22;;;;;;;2250.00;999.90;;;;;;;22.60;46.26;96111.00;2077180;28;20277;-58
2023/07/21 08:38:24;;;;;;;2250.00;999.90;;;;;;;22.50;45.85;96103.97;2076435;28;20229;-58
2023/07/21 08:39:25;;;;;;;2250.00;999.90;;;;;;;22.75;45.97;96114.75;2077158;28;20201;-58
2023/07/21 08:40:27;;;;;;;2250.00;999.90;;;;;;;23.14;44.76;96108.94;2077531;28;20196;-58
2023/07/21 08:41:33;;;;;;;2250.00;999.90;;;;;;;22.99;44.07;96108.75;2076092;28;20194;-58
2023/07/21 08:42:36;;;;;;;2250.00;999.90;;;;;;;23.28;44.18;96112.03;2078534;28;20197;-58
2023/07/21 08:43:38;;;;;;;2250.00;999.90;;;;;;;23.31;43.88;96107.22;2082706;28;20288;-58
2023/07/21 08:44:40;;;;;;;2250.00;999.90;;;;;;;23.71;44.35;96106.66;2080368;28;20193;-58
2023/07/21 08:45:43;;;;;;;2250.00;999.90;;;;;;;23.47;43.66;96108.28;2078811;28;20204;-58
2023/07/21 08:46:46;;;;;;;2250.00;999.90;;;;;;;23.38;43.40;96109.25;2076047;28;20197;-58
2023/07/21 08:47:47;;;;;;;2250.00;999.90;;;;;;;23.54;44.26;96122.63;2078911;28;20232;-58
2023/07/21 08:48:50;;;;;;;2250.00;999.90;;;;;;;23.38;43.62;96118.06;2073140;28;20518;-59
2023/07/21 08:49:51;;;;;;;2250.00;999.90;;;;;;;23.37;42.72;96110.25;2071899;28;20198;-58
2023/07/21 08:50:57;;;;;;;2250.00;999.90;;;;;;;23.70;43.18;96111.16;2072467;28;20198;-60
2023/07/21 08:51:59;;;;;;;2250.00;999.90;;;;;;;24.21;43.03;96112.91;2072991;28;20193;-60
2023/07/21 08:53:00;;;;;;;2250.00;999.90;;;;;;;24.67;42.13;96107.03;2072511;28;20221;-59
2023/07/21 08:54:02;;;;;;;2250.00;999.90;;;;;;;24.48;42.18;96113.53;2072628;28;20304;-59
2023/07/21 08:55:04;;;;;;;2250.00;999.90;;;;;;;24.70;41.85;96109.38;2074704;28;20217;-59
2023/07/21 08:56:05;;;;;;;2250.00;999.90;;;;;;;24.28;42.23;96101.38;2074206;28;20198;-59
2023/07/21 08:57:06;;;;;;;2250.00;999.90;;;;;;;24.67;42.41;96112.38;2071321;28;20193;-59
2023/07/21 08:58:09;;;;;;;2250.00;999.90;;;;;;;25.10;41.78;96112.94;2070854;28;20245;-59
2023/07/21 08:59:11;;;;;;;2250.00;999.90;;;;;;;25.19;41.08;96113.72;2072722;28;20277;-60
2023/07/21 09:00:14;;;;;;;2250.00;999.90;;;;;;;25.00;41.17;96110.47;2076172;28;20256;-60
2023/07/21 09:01:16;;;;;;;2250.00;999.90;;;;;;;24.52;41.08;96131.72;2077604;28;20404;-59
2023/07/21 09:02:36;;;;;;;2250.00;999.90;;;;;;;23.83;41.61;96126.66;2074689;28;20328;-59
2023/07/21 09:03:44;;;;;;;2250.00;999.90;;;;;;;24.15;42.10;96129.56;2073004;28;20684;-61
2023/07/21 09:04:46;;;;;;;2250.00;999.90;;;;;;;24.31;42.41;96116.22;2071841;28;20289;-59
2023/07/21 09:05:48;;;;;;;2250.00;999.90;;;;;;;24.46;42.28;96127.88;2071720;28;20247;-60
2023/07/21 09:06:51;;;;;;;2250.00;999.90;;;;;;;24.56;42.07;96125.03;2071874;28;20201;-60
2023/07/21 09:07:53;;;;;;;2250.00;999.90;;;;;;;24.67;41.30;96115.91;2076738;28;20217;-62
2023/07/21 09:08:56;;;;;;;2250.00;999.90;;;;;;;24.72;41.30;96120.72;2076200;28;20557;-60
2023/07/21 09:09:57;;;;;;;2250.00;999.90;;;;;;;24.53;41.30;96125.41;2072527;28;20236;-60
2023/07/21 09:11:00;;;;;;;2250.00;999.90;;;;;;;25.23;41.37;96123.06;2076997;28;20204;-59
2023/07/21 09:12:08;;;;;;;2250.00;999.90;;;;;;;25.38;40.17;96118.69;2073951;28;20229;-60
2023/07/21 09:13:17;;;;;;;2250.00;999.90;;;;;;;25.07;40.71;96124.78;2071965;28;20638;-59
2023/07/21 09:14:18;;;;;;;2250.00;999.90;;;;;;;24.29;40.37;96124.41;2072503;28;20285;-60
2023/07/21 09:15:19;;;;;;;2250.00;999.90;;;;;;;24.05;40.87;96127.91;2071215;28;20725;-60
2023/07/21 09:16:21;;;;;;;2250.00;999.90;;;;;;;23.87;41.74;96125.34;2072708;28;20653;-59
2023/07/21 09:17:24;;;;;;;2250.00;999.90;;;;;;;23.96;42.38;96131.56;2093060;28;20196;-59
2023/07/21 09:18:35;;;;;;;2250.00;999.90;;;;;;;23.95;42.51;96129.91;2092724;28;20636;-59
2023/07/21 09:19:39;;;;;;;2250.00;999.90;;;;;;;23.88;42.37;96139.50;2074023;28;20686;-60
2023/07/21 09:20:41;;;;;;;2250.00;999.90;;;;;;;23.86;42.33;96131.69;2076845;28;20774;-59
2023/07/21 09:21:55;;;;;;;2250.00;999.90;;;;;;;23.52;43.30;96129.09;2075492;28;20292;-60
2023/07/21 09:22:57;;;;;;;2250.00;999.90;;;;;;;23.42;42.92;96135.38;2074889;28;20227;-60
2023/07/21 09:24:03;;;;;;;2250.00;999.90;;;;;;;23.34;43.38;96129.19;2073446;28;20251;-59
2023/07/21 09:25:06;;;;;;;2250.00;999.90;;;;;;;23.09;43.23;96118.44;2074423;28;20237;-59
2023/07/21 09:26:08;;;;;;;2250.00;999.90;;;;;;;22.94;43.38;96129.69;2076242;28;20250;-59
2023/07/21 09:27:14;;;;;;;2250.00;999.90;;;;;;;22.88;42.73;96121.47;2073322;28;20205;-59
2023/07/21 09:28:16;;;;;;;2250.00;999.90;;;;;;;23.04;43.20;96118.06;2074758;28;20252;-60
2023/07/21 09:29:21;;;;;;;2250.00;999.90;;;;;;;23.25;43.01;96128.31;2075400;28;20189;-59
2023/07/21 09:30:23;;;;;;;2250.00;999.90;;;;;;;23.46;43.32;96125.25;2076670;28;20296;-59
2023/07/21 09:31:30;;;;;;;2250.00;999.90;;;;;;;23.68;43.27;96128.28;2074712;28;20813;-60
2023/07/21 09:32:40;;;;;;;2250.00;999.90;;;;;;;23.83;42.65;96126.66;2075946;28;20197;-60
2023/07/21 09:33:44;;;;;;;2250.00;999.90;;;;;;;24.51;42.12;96131.91;2075625;28;20212;-59
2023/07/21 09:34:55;;;;;;;2250.00;999.90;;;;;;;24.40;41.33;96119.72;2072654;28;20855;-60
2023/07/21 09:36:04;;;;;;;2250.00;999.90;;;;;;;25.10;41.13;96116.44;2072957;28;20202;-60
2023/07/21 09:37:07;;;;;;;2250.00;999.90;;;;;;;25.22;40.14;96113.41;2076053;28;20237;-60
2023/07/21 09:38:11;;;;;;;2250.00;999.90;;;;;;;25.68;39.88;96110.84;2076184;28;20622;-60
2023/07/21 09:39:17;;;;;;;2250.00;999.90;;;;;;;25.35;40.06;96118.19;2074942;28;20626;-59
2023/07/21 09:40:28;;;;;;;2250.00;999.90;;;;;;;25.68;39.96;96110.84;2087005;28;20219;-60
2023/07/21 09:41:32;;;;;;;2250.00;999.90;;;;;;;25.70;39.75;96108.00;2083835;28;20192;-60
2023/07/21 09:42:33;;;;;;;2250.00;999.90;;;;;;;25.74;39.04;96118.16;2071371;28;20198;-60
2023/07/21 09:43:36;;;;;;;2250.00;999.90;;;;;;;26.13;38.84;96112.91;2071103;28;20198;-60
2023/07/21 09:44:38;;;;;;;2250.00;999.90;;;;;;;26.40;38.46;96109.69;2074402;28;20201;-60
2023/07/21 09:45:41;;;;;;;2250.00;999.90;;;;;;;24.59;40.07;96107.88;2072150;28;20276;-60
2023/07/21 09:46:43;;;;;;;2250.00;999.90;;;;;;;24.83;39.68;96107.00;2071347;28;20260;-60
2023/07/21 09:47:46;;;;;;;2250.00;999.90;;;;;;;24.94;39.75;96103.97;2069656;28;20244;-60
2023/07/21 09:48:47;;;;;;;2250.00;999.90;;;;;;;25.53;39.72;96097.38;2072232;28;20738;-60
2023/07/21 09:49:53;;;;;;;2250.00;999.90;;;;;;;26.16;39.37;96105.38;2069945;28;20198;-60
2023/07/21 09:51:00;;;;;;;2250.00;999.90;;;;;;;26.60;38.82;96102.97;2071426;28;20200;-60
2023/07/21 09:52:02;;;;;;;2250.00;999.90;;;;;;;27.06;38.49;96100.19;2072364;28;20292;-60
2023/07/21 09:53:04;;;;;;;2250.00;999.90;;;;;;;27.06;38.28;96100.19;2071471;28;20283;-60
2023/07/21 09:54:06;;;;;;;2250.00;999.90;;;;;;;27.23;37.81;96108.03;2070914;28;20246;-60
2023/07/21 09:55:11;;;;;;;2250.00;999.90;;;;;;;26.91;37.29;96102.03;2069164;28;20205;-60
2023/07/21 09:56:15;;;;;;;2250.00;999.90;;;;;;;26.39;37.67;96099.16;2068258;28;20645;-60
2023/07/21 09:57:22;;;;;;;2250.00;999.90;;;;;;;25.87;38.99;96096.19;2070302;28;20443;-60
2023/07/21 09:58:26;;;;;;;2250.00;999.90;;;;;;;26.23;39.08;96098.28;2070967;28;20314;-60
2023/07/21 09:59:34;;;;;;;2250.00;999.90;;;;;;;26.34;38.80;96088.16;2070949;28;20198;-60
2023/07/21 10:00:39;;;;;;;2250.00;999.90;;;;;;;26.49;39.38;96091.69;2069231;28;20194;-60
2023/07/21 10:01:42;;;;;;;2250.00;999.90;;;;;;;26.56;39.27;96089.97;2072300;28;20214;-61
2023/07/21 10:02:46;;;;;;;2250.00;999.90;;;;;;;26.83;39.28;96097.56;2070463;28;20232;-60
2023/07/21 10:03:48;;;;;;;2250.00;999.90;;;;;;;26.76;39.15;96092.13;2071563;28;20202;-60
2023/07/21 10:04:50;;;;;;;2250.00;999.90;;;;;;;26.54;38.95;96091.16;2074607;28;20710;-60
2023/07/21 10:05:52;;;;;;;2250.00;999.90;;;;;;;26.73;38.94;96085.28;2075681;28;20189;-60
2023/07/21 10:06:58;;;;;;;2250.00;999.90;;;;;;;27.24;38.42;96097.09;2073460;28;20228;-60
2023/07/21 10:08:02;;;;;;;2250.00;999.90;;;;;;;26.52;38.45;96085.16;2066238;28;20280;-60
2023/07/21 10:09:08;;;;;;;2250.00;999.90;;;;;;;26.30;39.37;96084.19;2073875;28;20227;-60
2023/07/21 10:10:11;;;;;;;2250.00;999.90;;;;;;;25.82;38.98;96084.38;2073062;28;20200;-60
2023/07/21 10:11:13;;;;;;;2250.00;999.90;;;;;;;25.81;39.33;96088.88;2073558;28;20193;-60
2023/07/21 10:12:16;;;;;;;2250.00;999.90;;;;;;;25.80;39.35;96083.69;2070897;28;20209;-59
2023/07/21 10:13:18;;;;;;;2250.00;999.90;;;;;;;26.38;38.97;96090.28;2074853;28;20245;-60
2023/07/21 10:14:31;;;;;;;2250.00;999.90;;;;;;;26.76;38.96;96088.63;2070350;28;20197;-60
2023/07/21 10:15:34;;;;;;;2250.00;999.90;;;;;;;26.82;38.07;96088.72;2072822;28;20201;-60
2023/07/21 10:16:35;;;;;;;2250.00;999.90;;;;;;;27.36;37.55;96090.25;2071096;28;20256;-60
2023/07/21 10:17:53;;;;;;;2250.00;999.90;;;;;;;27.30;36.98;96082.97;2070721;28;20208;-60
2023/07/21 10:19:08;;;;;;;2250.00;999.90;;;;;;;27.16;37.46;96089.16;2072207;28;20575;-60
2023/07/21 10:20:13;;;;;;;2250.00;999.90;;;;;;;27.25;37.60;96089.88;2073908;28;20658;-60
2023/07/21 10:21:15;;;;;;;2250.00;999.90;;;;;;;26.98;37.85;96081.50;2076716;28;20220;-60
2023/07/21 10:22:24;;;;;;;2250.00;999.90;;;;;;;26.58;38.07;96078.25;2071387;28;20669;-60
2023/07/21 10:23:30;;;;;;;2250.00;999.90;;;;;;;25.90;38.12;96078.94;2070060;28;20577;-60
2023/07/21 10:24:32;;;;;;;2250.00;999.90;;;;;;;26.01;38.62;96077.72;2074153;28;20650;-60
2023/07/21 10:25:56;;;;;;;2250.00;999.90;;;;;;;25.74;39.04;96077.25;2076360;28;20677;-60
2023/07/21 10:27:03;;;;;;;2250.00;999.90;;;;;;;25.74;39.43;96077.25;2071665;28;20292;-60
2023/07/21 10:28:04;;;;;;;2250.00;999.90;;;;;;;25.50;39.56;96075.56;2071627;28;20315;-60
2023/07/21 10:29:15;;;;;;;2250.00;999.90;;;;;;;25.06;39.64;96072.38;2074269;28;20660;-60
2023/07/21 10:30:21;;;;;;;2250.00;999.90;;;;;;;24.54;39.68;96071.00;2072867;28;20198;-60
2023/07/21 10:32:25;;;;;;;2250.00;999.90;;;;;;;24.44;41.60;96079.22;2073577;28;20197;-60
2023/07/21 10:33:29;;;;;;;2250.00;999.90;;;;;;;24.44;42.04;96081.03;2075255;28;20305;-59
2023/07/21 10:34:32;;;;;;;2250.00;999.90;;;;;;;24.76;42.36;96085.50;2073961;28;20231;-60
2023/07/21 10:35:37;;;;;;;2250.00;999.90;;;;;;;24.82;42.15;96083.16;2068269;28;20324;-60
2023/07/21 10:36:51;;;;;;;2250.00;999.90;;;;;;;24.98;42.18;96087.63;2069769;28;20740;-60
2023/07/21 10:38:14;;;;;;;2250.00;999.90;;;;;;;25.16;42.05;96090.88;2067997;28;20275;-60
2023/07/21 10:39:20;;;;;;;2250.00;999.90;;;;;;;25.09;41.62;96093.41;2067721;28;20233;-60
2023/07/21 10:40:21;;;;;;;2250.00;999.90;;;;;;;25.30;41.92;96088.47;2067074;28;20193;-60
2023/07/21 10:41:23;;;;;;;2250.00;999.90;;;;;;;25.60;41.38;96097.53;2067772;28;20197;-60
2023/07/21 10:42:24;;;;;;;2250.00;999.90;;;;;;;25.62;41.33;96092.00;2073720;28;20276;-60
2023/07/21 10:43:26;;;;;;;2250.00;999.90;;;;;;;25.71;41.28;96091.78;2073891;28;20244;-60
2023/07/21 10:44:33;;;;;;;2250.00;999.90;;;;;;;25.34;40.94;96087.94;2073353;28;20237;-59
2023/07/21 10:45:34;;;;;;;2250.00;999.90;;;;;;;25.15;41.18;96099.88;2074521;28;20284;-60
2023/07/21 10:46:37;;;;;;;2250.00;999.90;;;;;;;24.86;41.29;96093.34;2073981;28;20201;-60
2023/07/21 10:47:39;;;;;;;2250.00;999.90;;;;;;;25.12;40.92;96094.09;2075429;28;20504;-60
2023/07/21 10:48:40;;;;;;;2250.00;999.90;;;;;;;25.90;40.31;96100.34;2072781;28;20285;-60
2023/07/21 10:49:42;;;;;;;2250.00;999.90;;;;;;;25.98;39.97;96094.94;2075635;28;20201;-60
2023/07/21 10:50:54;;;;;;;2250.00;999.90;;;;;;;25.99;40.31;96091.28;2071678;28;20201;-60
2023/07/21 10:51:55;;;;;;;2250.00;999.90;;;;;;;26.28;40.31;96094.25;2078217;28;20788;-60
2023/07/21 10:52:57;;;;;;;2250.00;999.90;;;;;;;26.46;40.42;96097.44;2076616;28;20227;-60
2023/07/21 10:53:59;;;;;;;2250.00;999.90;;;;;;;26.93;40.22;96086.59;2073364;28;20637;-60
2023/07/21 10:55:00;;;;;;;2250.00;999.90;;;;;;;27.04;39.78;96094.16;2072787;28;20301;-60
2023/07/21 10:56:07;;;;;;;2250.00;999.90;;;;;;;27.38;39.66;96098.09;2074715;28;20287;-60
2023/07/21 10:57:09;;;;;;;2250.00;999.90;;;;;;;27.32;39.44;96099.66;2074244;28;20197;-60
2023/07/21 10:58:10;;;;;;;2250.00;999.90;;;;;;;26.90;39.71;96101.19;2070389;28;20222;-60
2023/07/21 10:59:14;;;;;;;2250.00;999.90;;;;;;;26.83;39.76;96094.88;2069608;28;20205;-59
2023/07/21 11:00:15;;;;;;;2250.00;999.90;;;;;;;27.45;39.28;96104.41;2068766;28;20644;-60
2023/07/21 11:01:19;;;;;;;2250.00;999.90;;;;;;;27.40;38.87;96105.97;2075337;28;20194;-60
2023/07/21 11:02:25;;;;;;;2250.00;999.90;;;;;;;27.30;38.62;96104.41;2072912;28;20946;-60
2023/07/21 11:03:26;;;;;;;2250.00;999.90;;;;;;;27.31;38.73;96097.19;2072938;28;20242;-60
2023/07/21 11:04:29;;;;;;;2250.00;999.90;;;;;;;27.79;38.59;96094.88;2069941;28;20193;-60
2023/07/21 11:05:35;;;;;;;2250.00;999.90;;;;;;;28.00;38.27;96087.88;2067467;28;20214;-60
2023/07/21 11:06:42;;;;;;;2250.00;999.90;;;;;;;27.99;37.44;96087.03;2070923;28;20201;-60
2023/07/21 11:07:43;;;;;;;2250.00;999.90;;;;;;;28.09;38.11;96080.56;2071669;28;20197;-60
2023/07/21 11:08:45;;;;;;;2250.00;999.90;;;;;;;27.97;38.08;96083.72;2072319;28;20202;-60
2023/07/21 11:09:47;;;;;;;2250.00;999.90;;;;;;;28.26;37.34;96086.47;2073100;28;20208;-60
2023/07/21 11:10:49;;;;;;;2250.00;999.90;;;;;;;26.93;37.63;96087.44;2070306;28;20246;-60
2023/07/21 11:11:52;;;;;;;2250.00;999.90;;;;;;;26.91;39.35;96086.78;2072523;28;20202;-60
2023/07/21 11:12:54;;;;;;;2250.00;999.90;;;;;;;27.45;38.72;96091.03;2072166;28;20362;-60
2023/07/21 11:13:56;;;;;;;2250.00;999.90;;;;;;;27.65;38.17;96085.84;2072660;28;20673;-60
2023/07/21 11:14:58;;;;;;;2250.00;999.90;;;;;;;27.44;37.96;96092.03;2069215;28;20289;-60
2023/07/21 11:16:00;;;;;;;2250.00;999.90;;;;;;;27.10;39.01;96081.91;2070289;28;20198;-60
2023/07/21 11:17:03;;;;;;;2250.00;999.90;;;;;;;26.96;39.22;96091.59;2067924;28;20190;-60
2023/07/21 11:18:05;;;;;;;2250.00;999.90;;;;;;;27.07;38.73;96098.31;2073091;28;20576;-60
2023/07/21 11:19:08;;;;;;;2250.00;999.90;;;;;;;26.97;38.21;96088.72;2072882;28;20260;-61
2023/07/21 11:20:10;;;;;;;2250.00;999.90;;;;;;;27.41;38.53;96083.53;2074068;28;20212;-60
2023/07/21 11:21:12;;;;;;;2250.00;999.90;;;;;;;27.35;38.49;96091.28;2072142;28;20193;-60
2023/07/21 11:22:13;;;;;;;2250.00;999.90;;;;;;;27.29;38.04;96094.69;2066629;28;20796;-60
2023/07/21 11:23:15;;;;;;;2250.00;999.90;;;;;;;27.40;39.19;96095.25;2065034;28;20774;-61
2023/07/21 11:24:17;;;;;;;2250.00;999.90;;;;;;;27.57;38.74;96103.94;2072708;28;20204;-60
2023/07/21 11:25:19;;;;;;;2250.00;999.90;;;;;;;26.64;38.59;96096.22;2072052;28;20664;-60
2023/07/21 11:26:22;;;;;;;2250.00;999.90;;;;;;;26.40;39.70;96095.47;2070430;28;20231;-60
2023/07/21 11:27:24;;;;;;;2250.00;999.90;;;;;;;26.48;39.15;96095.38;2070518;28;20794;-60
2023/07/21 11:28:26;;;;;;;2250.00;999.90;;;;;;;26.03;40.25;96089.91;2069496;28;20218;-60
2023/07/21 11:29:30;;;;;;;2250.00;999.90;;;;;;;26.26;40.25;96091.75;2069075;28;20656;-60
2023/07/21 11:30:32;;;;;;;2250.00;999.90;;;;;;;26.66;40.24;96095.03;2072974;28;20198;-60
2023/07/21 11:31:34;;;;;;;2250.00;999.90;;;;;;;25.61;40.12;96093.00;2073403;28;20197;-60
2023/07/21 11:32:35;;;;;;;2250.00;999.90;;;;;;;25.15;40.79;96093.72;2072080;28;20622;-59
2023/07/21 11:33:42;;;;;;;2250.00;999.90;;;;;;;25.02;41.36;96095.09;2069767;28;20212;-59
2023/07/21 11:34:44;;;;;;;2250.00;999.90;;;;;;;25.44;41.03;96093.09;2071346;28;20228;-60
2023/07/21 11:35:48;;;;;;;2250.00;999.90;;;;;;;25.69;41.01;96101.00;2069663;28;20677;-59
2023/07/21 11:37:00;;;;;;;2250.00;999.90;;;;;;;25.70;41.24;96097.28;2069144;28;20237;-60
2023/07/21 11:38:02;;;;;;;2250.00;999.90;;;;;;;25.72;41.82;96088.09;2075296;28;20277;-60
2023/07/21 11:39:10;;;;;;;2250.00;999.90;;;;;;;25.98;41.62;96094.09;2074838;28;20263;-60
2023/07/21 11:40:18;;;;;;;2250.00;999.90;;;;;;;26.25;41.68;96095.44;2072152;28;20224;-60
2023/07/21 11:41:39;;;;;;;2250.00;999.90;;;;;;;26.36;41.28;96102.19;2072587;28;20680;-60
2023/07/21 11:42:43;;;;;;;2250.00;999.90;;;;;;;26.36;40.27;96097.69;2071695;28;20263;-60
2023/07/21 11:43:48;;;;;;;2250.00;999.90;;;;;;;25.98;40.98;96094.09;2071548;28;20190;-60
2023/07/21 11:44:49;;;;;;;2250.00;999.90;;;;;;;25.83;41.03;96107.44;2072632;28;20286;-60
2023/07/21 11:45:51;;;;;;;2250.00;999.90;;;;;;;25.41;41.28;96104.97;2071281;28;20377;-59
2023/07/21 11:47:09;;;;;;;2250.00;999.90;;;;;;;25.55;41.93;96106.06;2073402;28;20251;-60
2023/07/21 11:48:17;;;;;;;2250.00;999.90;;;;;;;25.66;41.59;96104.88;2071750;28;20223;-60
2023/07/21 11:49:20;;;;;;;2250.00;999.90;;;;;;;25.68;41.65;96108.16;2068958;28;20229;-60
2023/07/21 11:50:23;;;;;;;2250.00;999.90;;;;;;;25.48;41.84;96097.09;2069455;28;20677;-60
2023/07/21 11:51:25;;;;;;;2250.00;999.90;;;;;;;25.42;42.37;96097.81;2075742;28;20285;-60
2023/07/21 11:52:27;;;;;;;2250.00;999.90;;;;;;;25.36;42.43;96093.97;2075080;28;20284;-61
2023/07/21 11:53:47;;;;;;;2250.00;999.90;;;;;;;25.23;42.78;96101.69;2073245;28;20201;-60
2023/07/21 11:54:48;;;;;;;2250.00;999.90;;;;;;;25.25;42.38;96105.03;2074276;28;20202;-60
2023/07/21 11:55:50;;;;;;;2250.00;999.90;;;;;;;25.21;42.86;96106.38;2073755;28;20582;-60
2023/07/21 11:56:54;;;;;;;2250.00;999.90;;;;;;;25.16;43.23;96100.72;2071975;28;20205;-60
2023/07/21 11:57:55;;;;;;;2250.00;999.90;;;;;;;25.10;43.42;96102.25;2071199;28;20983;-60
2023/07/21 11:58:57;;;;;;;2250.00;999.90;;;;;;;25.31;43.44;96114.19;2068393;28;20478;-60
2023/07/21 11:59:58;;;;;;;2250.00;999.90;;;;;;;25.23;43.04;96101.69;2068213;28;20195;-60
2023/07/21 12:01:00;;;;;;;2250.00;999.90;;;;;;;24.91;43.68;96103.47;2076237;28;20208;-59
2023/07/21 12:02:03;;;;;;;2250.00;999.90;;;;;;;24.83;43.61;96109.66;2074090;28;20232;-60
2023/07/21 12:03:06;;;;;;;2250.00;999.90;;;;;;;24.57;43.88;96115.19;2075463;28;20224;-60
2023/07/21 12:04:08;;;;;;;2250.00;999.90;;;;;;;24.48;44.35;96103.72;2073517;28;20598;-60
2023/07/21 12:05:10;;;;;;;2250.00;999.90;;;;;;;24.52;43.66;96101.53;2071188;28;20229;-60
2023/07/21 12:06:11;;;;;;;2250.00;999.90;;;;;;;24.84;43.48;96095.31;2071003;28;20200;-60
2023/07/21 12:07:13;;;;;;;2250.00;999.90;;;;;;;24.62;43.91;96104.88;2071843;28;20286;-60
2023/07/21 12:08:14;;;;;;;2250.00;999.90;;;;;;;24.31;44.35;96107.41;2069582;28;20226;-60
2023/07/21 12:09:16;;;;;;;2250.00;999.90;;;;;;;24.16;44.60;96104.56;2071099;28;20193;-60